Time;durP1;ratioP1;P1;durP2;ratioP2;P2;SDS_P1;SDS_P2;PMS_P1;PMS_P2;Temp;Humidity;BMP_temperature;BMP_pressure;BME280_temperature;BME280_humidity;BME280_pressure;Samples;Min_cycle;Max_cycle;Signal;HPM_P1;HPM_P2
2022/07/12 00:00:55;;;;;;;5.85;1.40;;;;;;;;;;4892223;29;20382;-71
2022/07/12 00:03:21;;;;;;;5.78;1.65;;;;;;;;;;4891898;29;20124;-71
2022/07/12 00:05:47;;;;;;;6.03;1.50;;;;;;;;;;4873085;29;20073;-71
2022/07/12 00:08:13;;;;;;;5.40;1.63;;;;;;;;;;4889362;29;20057;-70
2022/07/12 00:10:39;;;;;;;5.85;1.63;;;;;;;;;;4893602;29;20478;-70
2022/07/12 00:13:05;;;;;;;2.95;1.55;;;;;;;;;;4870513;29;20113;-69
2022/07/12 00:15:31;;;;;;;5.35;1.60;;;;;;;;;;4894323;29;20049;-73
2022/07/12 00:17:57;;;;;;;4.00;1.50;;;;;;;;;;4884688;29;20063;-69
2022/07/12 00:20:23;;;;;;;4.05;1.75;;;;;;;;;;4891894;29;20041;-70
2022/07/12 00:22:49;;;;;;;6.68;1.50;;;;;;;;;;4894178;29;20076;-69
2022/07/12 00:25:15;;;;;;;3.92;1.38;;;;;;;;;;4893615;29;20141;-70
2022/07/12 00:27:41;;;;;;;2.70;1.50;;;;;;;;;;4890820;29;20540;-71
2022/07/12 00:30:08;;;;;;;3.83;1.80;;;;;;;;;;4884871;29;20143;-71
2022/07/12 00:32:34;;;;;;;4.53;1.67;;;;;;;;;;4879707;29;20123;-70
2022/07/12 00:35:00;;;;;;;3.85;1.65;;;;;;;;;;4879587;29;20206;-69
2022/07/12 00:37:26;;;;;;;2.72;1.67;;;;;;;;;;4887028;29;20055;-72
2022/07/12 00:39:52;;;;;;;5.15;1.48;;;;;;;;;;4890925;29;20209;-70
2022/07/12 00:42:18;;;;;;;4.47;1.30;;;;;;;;;;4893519;29;20048;-67
2022/07/12 00:44:44;;;;;;;2.45;1.30;;;;;;;;;;4888445;29;20080;-68
2022/07/12 00:47:37;;;;;;;4.38;1.33;;;;;;;;;;4887767;29;20057;-70
2022/07/12 00:50:23;;;;;;;2.03;1.20;;;;;;;;;;4887598;29;20393;-69
2022/07/12 00:52:52;;;;;;;3.33;1.58;;;;;;;;;;4886645;29;20594;-72
2022/07/12 00:55:20;;;;;;;2.55;1.20;;;;;;;;;;4883601;29;20049;-69
2022/07/12 00:57:49;;;;;;;5.28;1.55;;;;;;;;;;4891510;29;20059;-73
2022/07/12 01:00:24;;;;;;;3.55;1.10;;;;;;;;;;4889116;29;20136;-70
2022/07/12 01:02:51;;;;;;;2.85;1.40;;;;;;;;;;4884498;29;20060;-70
2022/07/12 01:05:17;;;;;;;2.63;1.42;;;;;;;;;;4888547;29;20060;-70
2022/07/12 01:07:44;;;;;;;4.75;1.40;;;;;;;;;;4885495;29;20104;-70
2022/07/12 01:10:11;;;;;;;4.80;1.45;;;;;;;;;;4888693;29;20376;-69
2022/07/12 01:12:37;;;;;;;4.95;1.30;;;;;;;;;;4891504;29;20695;-68
2022/07/12 01:15:05;;;;;;;5.60;1.70;;;;;;;;;;4888791;29;20055;-70
2022/07/12 01:17:32;;;;;;;3.10;1.45;;;;;;;;;;4887006;29;20040;-72
2022/07/12 01:19:59;;;;;;;4.72;1.35;;;;;;;;;;4884370;29;20049;-69
2022/07/12 01:22:34;;;;;;;3.50;1.25;;;;;;;;;;4884375;29;20049;-70
2022/07/12 01:25:01;;;;;;;4.82;1.30;;;;;;;;;;4883758;29;20072;-69
2022/07/12 01:27:27;;;;;;;2.40;1.30;;;;;;;;;;4888263;29;20135;-70
2022/07/12 01:29:54;;;;;;;3.83;1.52;;;;;;;;;;4885524;29;20393;-70
2022/07/12 01:32:26;;;;;;;5.47;1.50;;;;;;;;;;4868627;29;20053;-70
2022/07/12 01:34:57;;;;;;;2.45;1.30;;;;;;;;;;4885354;29;20076;-70
2022/07/12 01:37:25;;;;;;;4.53;1.30;;;;;;;;;;4887808;29;20081;-70
2022/07/12 01:39:56;;;;;;;2.78;1.40;;;;;;;;;;4883977;29;20048;-68
2022/07/12 01:42:25;;;;;;;4.53;1.60;;;;;;;;;;4869600;29;20624;-70
2022/07/12 01:44:52;;;;;;;2.03;1.27;;;;;;;;;;4884017;29;20083;-69
2022/07/12 01:47:19;;;;;;;4.88;1.45;;;;;;;;;;4885713;29;20060;-69
2022/07/12 01:49:45;;;;;;;5.07;1.50;;;;;;;;;;4893068;29;20155;-70
2022/07/12 01:52:12;;;;;;;5.25;1.60;;;;;;;;;;4886416;29;20080;-68
2022/07/12 01:54:39;;;;;;;3.60;2.00;;;;;;;;;;4883725;29;20056;-69
2022/07/12 01:57:05;;;;;;;5.95;1.70;;;;;;;;;;4885455;29;20064;-70
2022/07/12 01:59:31;;;;;;;3.88;1.60;;;;;;;;;;4875192;29;20040;-69
2022/07/12 02:01:57;;;;;;;2.08;1.27;;;;;;;;;;4883895;29;20064;-68
2022/07/12 02:04:23;;;;;;;4.28;1.90;;;;;;;;;;4886972;29;20041;-69
2022/07/12 02:06:50;;;;;;;6.28;2.40;;;;;;;;;;4892583;29;20052;-69
2022/07/12 02:09:16;;;;;;;7.57;2.22;;;;;;;;;;4886812;29;20085;-69
2022/07/12 02:11:43;;;;;;;5.55;2.35;;;;;;;;;;4892407;29;20123;-68
2022/07/12 02:14:12;;;;;;;11.82;3.03;;;;;;;;;;4882031;29;20045;-69
2022/07/12 02:16:38;;;;;;;8.82;2.58;;;;;;;;;;4887237;29;20072;-69
2022/07/12 02:19:04;;;;;;;12.68;2.60;;;;;;;;;;4882831;29;20286;-69
2022/07/12 02:21:31;;;;;;;10.30;3.03;;;;;;;;;;4890386;29;20141;-69
2022/07/12 02:23:56;;;;;;;8.98;3.08;;;;;;;;;;4891454;29;20126;-69
2022/07/12 02:26:22;;;;;;;9.88;2.97;;;;;;;;;;4890907;29;20048;-70
2022/07/12 02:28:49;;;;;;;11.52;3.28;;;;;;;;;;4887159;29;20066;-69
2022/07/12 02:31:15;;;;;;;11.05;2.53;;;;;;;;;;4884392;29;20056;-69
2022/07/12 02:33:41;;;;;;;8.90;2.60;;;;;;;;;;4879243;29;20052;-70
2022/07/12 02:36:07;;;;;;;9.93;3.00;;;;;;;;;;4882063;29;20156;-70
2022/07/12 02:38:33;;;;;;;5.93;2.72;;;;;;;;;;4890074;29;21626;-68
2022/07/12 02:40:59;;;;;;;7.55;2.85;;;;;;;;;;4888805;29;20469;-70
2022/07/12 02:43:27;;;;;;;8.30;2.60;;;;;;;;;;4882186;29;20052;-70
2022/07/12 02:45:56;;;;;;;13.00;3.10;;;;;;;;;;4885077;29;20140;-68
2022/07/12 02:48:22;;;;;;;8.75;2.67;;;;;;;;;;4885710;29;20056;-68
2022/07/12 02:50:48;;;;;;;5.22;2.50;;;;;;;;;;4886481;29;20069;-69
2022/07/12 02:53:15;;;;;;;6.85;2.42;;;;;;;;;;4866728;29;20072;-69
2022/07/12 02:55:41;;;;;;;4.00;2.15;;;;;;;;;;4882033;29;20056;-68
2022/07/12 02:58:07;;;;;;;7.55;2.83;;;;;;;;;;4890807;29;20549;-69
2022/07/12 03:00:34;;;;;;;8.40;2.38;;;;;;;;;;4886041;29;20480;-69
2022/07/12 03:03:01;;;;;;;6.47;2.65;;;;;;;;;;4887796;29;20482;-70
2022/07/12 03:05:27;;;;;;;5.47;2.60;;;;;;;;;;4871076;29;20761;-68
2022/07/12 03:07:53;;;;;;;6.53;2.45;;;;;;;;;;4885472;29;20124;-69
2022/07/12 03:10:19;;;;;;;7.40;2.53;;;;;;;;;;4891174;29;20048;-68
2022/07/12 03:12:45;;;;;;;6.25;2.25;;;;;;;;;;4889243;29;20044;-68
2022/07/12 03:15:11;;;;;;;5.63;2.50;;;;;;;;;;4886049;29;20124;-70
2022/07/12 03:17:37;;;;;;;6.97;2.30;;;;;;;;;;4884996;29;20056;-68
2022/07/12 03:20:08;;;;;;;7.15;2.80;;;;;;;;;;4890661;29;21681;-72
2022/07/12 03:22:34;;;;;;;7.03;2.50;;;;;;;;;;4883718;29;20054;-69
2022/07/12 03:25:00;;;;;;;7.63;2.60;;;;;;;;;;4892979;29;20540;-70
2022/07/12 03:27:26;;;;;;;7.57;2.47;;;;;;;;;;4888579;29;20059;-69
2022/07/12 03:29:52;;;;;;;6.18;2.80;;;;;;;;;;4892478;29;20049;-69
2022/07/12 03:32:18;;;;;;;8.55;3.00;;;;;;;;;;4865726;29;20103;-69
2022/07/12 03:34:44;;;;;;;8.10;2.75;;;;;;;;;;4881560;29;20428;-67
2022/07/12 03:37:10;;;;;;;6.45;2.78;;;;;;;;;;4888675;29;20047;-68
2022/07/12 03:39:36;;;;;;;7.65;2.50;;;;;;;;;;4888630;29;20068;-73
2022/07/12 03:42:02;;;;;;;8.57;2.75;;;;;;;;;;4890171;29;20083;-68
2022/07/12 03:44:30;;;;;;;9.57;2.42;;;;;;;;;;4882855;29;20073;-69
2022/07/12 03:46:55;;;;;;;6.03;2.72;;;;;;;;;;4885699;29;20554;-70
2022/07/12 03:49:22;;;;;;;7.75;2.60;;;;;;;;;;4882734;29;20055;-69
2022/07/12 03:51:47;;;;;;;6.68;2.88;;;;;;;;;;4892333;29;20131;-69
2022/07/12 03:54:13;;;;;;;5.05;2.40;;;;;;;;;;4885922;29;20446;-69
2022/07/12 03:59:23;;;;;;;10.40;2.80;;;;;;;;;;4888745;29;20570;-69
2022/07/12 04:01:49;;;;;;;6.45;2.75;;;;;;;;;;4884636;29;20071;-69
2022/07/12 04:04:15;;;;;;;6.63;2.70;;;;;;;;;;4886293;29;20127;-70
2022/07/12 04:06:41;;;;;;;6.97;2.80;;;;;;;;;;4877635;29;20099;-70
2022/07/12 04:09:07;;;;;;;9.30;2.88;;;;;;;;;;4900428;29;20065;-68
2022/07/12 04:11:33;;;;;;;9.10;3.10;;;;;;;;;;4885480;29;20635;-68
2022/07/12 04:13:59;;;;;;;5.28;2.83;;;;;;;;;;4894646;29;20049;-70
2022/07/12 04:16:26;;;;;;;4.93;2.38;;;;;;;;;;4888159;29;20060;-69
2022/07/12 04:18:52;;;;;;;5.63;2.80;;;;;;;;;;4893253;29;20379;-67
2022/07/12 04:21:18;;;;;;;7.85;3.10;;;;;;;;;;4886794;29;20152;-69
2022/07/12 04:23:44;;;;;;;6.15;2.75;;;;;;;;;;4890160;29;20040;-70
2022/07/12 04:26:09;;;;;;;5.90;2.80;;;;;;;;;;4890653;29;20103;-70
2022/07/12 04:28:35;;;;;;;5.97;3.03;;;;;;;;;;4892977;29;20057;-71
2022/07/12 04:31:02;;;;;;;6.85;3.10;;;;;;;;;;4890383;29;20055;-72
2022/07/12 04:33:28;;;;;;;8.98;3.40;;;;;;;;;;4886924;29;20053;-71
2022/07/12 04:35:54;;;;;;;10.05;3.15;;;;;;;;;;4885839;29;20105;-72
2022/07/12 04:38:20;;;;;;;11.95;3.75;;;;;;;;;;4892505;29;20080;-74
2022/07/12 04:40:46;;;;;;;14.18;4.57;;;;;;;;;;4885124;29;20064;-73
2022/07/12 04:43:12;;;;;;;14.52;6.13;;;;;;;;;;4872266;29;20053;-70
2022/07/12 04:45:38;;;;;;;7.65;4.15;;;;;;;;;;4885476;29;20052;-71
2022/07/12 04:48:04;;;;;;;17.15;4.43;;;;;;;;;;4898804;29;20052;-70
2022/07/12 04:50:30;;;;;;;6.15;3.85;;;;;;;;;;4892250;29;20064;-69
2022/07/12 04:52:56;;;;;;;9.30;3.88;;;;;;;;;;4887285;29;20264;-71
2022/07/12 04:55:22;;;;;;;9.40;4.45;;;;;;;;;;4898798;29;20048;-71
2022/07/12 04:57:48;;;;;;;9.88;4.30;;;;;;;;;;4888172;29;20352;-71
2022/07/12 05:00:15;;;;;;;5.65;3.95;;;;;;;;;;4894753;29;20056;-71
2022/07/12 05:02:40;;;;;;;12.93;4.38;;;;;;;;;;4892868;29;20052;-71
2022/07/12 05:05:07;;;;;;;7.10;3.78;;;;;;;;;;4896640;29;20056;-72
2022/07/12 05:07:33;;;;;;;13.60;3.70;;;;;;;;;;4894047;29;20052;-72
2022/07/12 05:09:59;;;;;;;8.77;3.90;;;;;;;;;;4870516;29;20133;-70
2022/07/12 05:12:25;;;;;;;9.15;3.63;;;;;;;;;;4888756;29;20049;-69
2022/07/12 05:14:51;;;;;;;9.52;3.40;;;;;;;;;;4891347;29;20582;-69
2022/07/12 05:17:17;;;;;;;5.90;3.05;;;;;;;;;;4887362;29;20044;-70
2022/07/12 05:19:43;;;;;;;9.77;3.60;;;;;;;;;;4887408;29;20190;-70
2022/07/12 05:22:09;;;;;;;14.20;3.35;;;;;;;;;;4884846;29;20057;-69
2022/07/12 05:24:35;;;;;;;6.07;2.90;;;;;;;;;;4884670;29;20052;-71
2022/07/12 05:27:01;;;;;;;8.93;2.75;;;;;;;;;;4883545;29;20593;-71
2022/07/12 05:29:27;;;;;;;7.90;3.13;;;;;;;;;;4884501;29;20108;-68
2022/07/12 05:31:57;;;;;;;7.13;2.72;;;;;;;;;;4885552;29;20048;-70
2022/07/12 05:34:23;;;;;;;4.13;2.60;;;;;;;;;;4889361;29;20045;-72
2022/07/12 05:36:50;;;;;;;7.75;3.20;;;;;;;;;;4891797;29;20059;-73
2022/07/12 05:39:16;;;;;;;9.27;3.15;;;;;;;;;;4890010;29;20052;-73
2022/07/12 05:41:41;;;;;;;10.80;4.28;;;;;;;;;;4892670;29;20045;-73
2022/07/12 05:44:07;;;;;;;9.77;3.17;;;;;;;;;;4888459;29;20044;-69
2022/07/12 05:46:34;;;;;;;10.48;3.40;;;;;;;;;;4892154;29;20060;-73
2022/07/12 05:49:00;;;;;;;10.05;2.83;;;;;;;;;;4893585;29;20072;-71
2022/07/12 05:54:11;;;;;;;5.35;2.88;;;;;;;;;;4886966;29;20053;-71
2022/07/12 05:56:37;;;;;;;8.00;2.92;;;;;;;;;;4882592;29;20056;-66
2022/07/12 05:59:03;;;;;;;17.35;3.08;;;;;;;;;;4888793;29;20407;-63
2022/07/12 06:01:29;;;;;;;8.77;2.72;;;;;;;;;;4882612;29;20538;-65
2022/07/12 06:03:55;;;;;;;7.95;2.70;;;;;;;;;;4882025;29;20052;-67
2022/07/12 06:06:20;;;;;;;12.27;3.15;;;;;;;;;;4887506;29;20053;-73
2022/07/12 06:08:46;;;;;;;6.80;2.65;;;;;;;;;;4879427;29;20064;-73
2022/07/12 06:11:12;;;;;;;11.70;3.25;;;;;;;;;;4882647;29;20041;-71
2022/07/12 06:13:38;;;;;;;9.52;2.95;;;;;;;;;;4891617;29;20252;-69
2022/07/12 06:16:09;;;;;;;7.57;2.70;;;;;;;;;;4883091;29;20053;-71
2022/07/12 06:18:36;;;;;;;15.55;2.95;;;;;;;;;;4883589;29;20095;-71
2022/07/12 06:21:02;;;;;;;11.55;3.15;;;;;;;;;;4888586;29;20055;-72
2022/07/12 06:23:28;;;;;;;7.95;2.90;;;;;;;;;;4894324;29;20049;-73
2022/07/12 06:25:54;;;;;;;8.90;2.83;;;;;;;;;;4893435;29;20055;-73
2022/07/12 06:28:19;;;;;;;6.07;2.63;;;;;;;;;;4889925;29;20060;-71
2022/07/12 06:30:45;;;;;;;6.53;2.55;;;;;;;;;;4880545;29;20056;-71
2022/07/12 06:33:11;;;;;;;11.75;2.97;;;;;;;;;;4865312;29;20256;-72
2022/07/12 06:35:37;;;;;;;7.30;3.13;;;;;;;;;;4890147;29;20140;-74
2022/07/12 06:38:03;;;;;;;15.68;3.70;;;;;;;;;;4873142;29;20434;-71
2022/07/12 06:40:29;;;;;;;5.13;2.55;;;;;;;;;;4876534;29;20048;-73
2022/07/12 06:42:55;;;;;;;7.28;2.50;;;;;;;;;;4890526;29;20049;-74
2022/07/12 06:45:21;;;;;;;8.48;2.67;;;;;;;;;;4887970;29;20056;-74
2022/07/12 06:47:47;;;;;;;10.68;2.55;;;;;;;;;;4889646;29;20099;-71
2022/07/12 06:50:13;;;;;;;8.13;2.50;;;;;;;;;;4881586;29;20057;-74
2022/07/12 06:52:39;;;;;;;11.60;2.78;;;;;;;;;;4884346;29;20549;-71
2022/07/12 06:55:06;;;;;;;7.97;2.50;;;;;;;;;;4889494;29;20056;-74
2022/07/12 06:57:33;;;;;;;8.40;2.53;;;;;;;;;;4878708;29;20519;-70
2022/07/12 06:59:59;;;;;;;8.25;2.50;;;;;;;;;;4883099;29;20063;-71
2022/07/12 07:02:25;;;;;;;10.48;2.85;;;;;;;;;;4893586;29;20176;-72
2022/07/12 07:04:51;;;;;;;11.13;2.53;;;;;;;;;;4871964;29;20541;-75
2022/07/12 07:07:17;;;;;;;10.70;2.50;;;;;;;;;;4891513;29;20076;-73
2022/07/12 07:09:43;;;;;;;9.68;2.70;;;;;;;;;;4893245;29;20462;-74
2022/07/12 07:12:09;;;;;;;6.25;2.20;;;;;;;;;;4893980;29;20055;-72
2022/07/12 07:14:35;;;;;;;6.43;2.17;;;;;;;;;;4879555;29;20410;-73
2022/07/12 07:17:01;;;;;;;13.50;2.50;;;;;;;;;;4885486;29;20374;-73
2022/07/12 07:19:27;;;;;;;7.78;2.47;;;;;;;;;;4876631;29;20052;-73
2022/07/12 07:21:54;;;;;;;9.98;2.50;;;;;;;;;;4889981;29;20123;-79
2022/07/12 07:24:21;;;;;;;7.95;2.10;;;;;;;;;;4888636;29;20053;-76
2022/07/12 07:26:47;;;;;;;9.02;2.67;;;;;;;;;;4886779;29;20048;-73
2022/07/12 07:31:58;;;;;;;9.88;2.20;;;;;;;;;;4889166;29;20115;-74
2022/07/12 07:34:25;;;;;;;12.32;2.67;;;;;;;;;;4891632;29;20553;-73
2022/07/12 07:36:51;;;;;;;11.05;2.38;;;;;;;;;;4891824;29;20487;-74
2022/07/12 07:39:17;;;;;;;13.60;2.92;;;;;;;;;;4893056;29;20041;-74
2022/07/12 07:41:43;;;;;;;13.02;3.58;;;;;;;;;;4882435;29;20183;-76
2022/07/12 07:44:09;;;;;;;7.00;2.47;;;;;;;;;;4889457;29;20879;-73
2022/07/12 07:46:35;;;;;;;10.68;2.65;;;;;;;;;;4893239;29;20056;-74
2022/07/12 07:49:02;;;;;;;6.55;2.00;;;;;;;;;;4892473;29;20500;-74
2022/07/12 07:51:28;;;;;;;5.07;1.90;;;;;;;;;;4891314;29;20316;-74
2022/07/12 07:53:53;;;;;;;6.32;2.45;;;;;;;;;;4894447;29;20547;-74
2022/07/12 07:56:19;;;;;;;10.52;2.10;;;;;;;;;;4879439;29;20420;-74
2022/07/12 07:58:45;;;;;;;14.60;2.50;;;;;;;;;;4895746;29;20167;-74
2022/07/12 08:01:11;;;;;;;7.03;2.00;;;;;;;;;;4889537;29;20069;-75
2022/07/12 08:03:39;;;;;;;6.05;1.88;;;;;;;;;;4891618;29;20057;-74
2022/07/12 08:06:05;;;;;;;6.18;1.95;;;;;;;;;;4896522;29;20052;-73
2022/07/12 08:08:31;;;;;;;8.20;2.22;;;;;;;;;;4899959;29;20048;-76
2022/07/12 08:10:57;;;;;;;3.53;1.83;;;;;;;;;;4900023;29;20072;-75
2022/07/12 08:13:23;;;;;;;11.18;2.00;;;;;;;;;;4880550;29;20079;-72
2022/07/12 08:15:49;;;;;;;8.10;2.00;;;;;;;;;;4894684;29;20055;-72
2022/07/12 08:18:15;;;;;;;12.20;2.55;;;;;;;;;;4894562;29;20053;-74
2022/07/12 08:20:41;;;;;;;6.35;2.55;;;;;;;;;;4894065;29;20080;-75
2022/07/12 08:23:07;;;;;;;5.75;2.00;;;;;;;;;;4895444;29;20079;-74
2022/07/12 08:25:34;;;;;;;9.10;2.30;;;;;;;;;;4895186;29;20132;-75
2022/07/12 08:28:00;;;;;;;8.15;1.90;;;;;;;;;;4895392;29;20115;-76
2022/07/12 08:30:26;;;;;;;5.85;2.60;;;;;;;;;;4897016;29;20511;-73
2022/07/12 08:32:52;;;;;;;10.32;3.13;;;;;;;;;;4895689;29;20615;-76
2022/07/12 08:35:18;;;;;;;8.77;2.55;;;;;;;;;;4887229;29;20135;-75
2022/07/12 08:37:43;;;;;;;12.85;2.25;;;;;;;;;;4879539;29;20044;-74
2022/07/12 08:40:10;;;;;;;6.82;1.90;;;;;;;;;;4887895;29;20136;-75
2022/07/12 08:42:40;;;;;;;3.78;1.80;;;;;;;;;;4896421;29;20048;-75
2022/07/12 08:45:07;;;;;;;8.95;1.73;;;;;;;;;;4876730;29;20104;-72
2022/07/12 08:47:33;;;;;;;9.18;1.80;;;;;;;;;;4892299;29;20071;-76
2022/07/12 08:50:12;;;;;;;8.38;1.90;;;;;;;;;;4879637;29;20056;-75
2022/07/12 08:52:49;;;;;;;9.45;1.95;;;;;;;;;;4896403;29;20213;-76
2022/07/12 08:55:22;;;;;;;9.13;1.90;;;;;;;;;;4896260;29;20045;-75
2022/07/12 08:57:50;;;;;;;6.90;1.80;;;;;;;;;;4896700;29;20079;-72
2022/07/12 09:00:16;;;;;;;9.50;2.25;;;;;;;;;;4896032;29;20052;-75
2022/07/12 09:02:48;;;;;;;9.80;2.40;;;;;;;;;;4895298;29;20080;-76
2022/07/12 09:05:16;;;;;;;7.68;2.22;;;;;;;;;;4894942;29;20048;-76
2022/07/12 09:07:43;;;;;;;11.40;2.20;;;;;;;;;;4896148;29;20048;-75
2022/07/12 09:10:11;;;;;;;8.27;1.80;;;;;;;;;;4897647;29;20507;-73
2022/07/12 09:12:37;;;;;;;10.82;2.33;;;;;;;;;;4895327;29;20045;-74
2022/07/12 09:15:30;;;;;;;9.25;2.38;;;;;;;;;;4879778;29;20045;-76
2022/07/12 09:18:05;;;;;;;8.30;2.65;;;;;;;;;;4893342;29;20123;-77
2022/07/12 09:20:33;;;;;;;18.15;2.53;;;;;;;;;;4894425;29;20402;-76
2022/07/12 09:23:02;;;;;;;14.30;2.50;;;;;;;;;;4882271;29;20057;-75
2022/07/12 09:25:29;;;;;;;12.38;2.58;;;;;;;;;;4891338;29;20182;-74
2022/07/12 09:27:57;;;;;;;14.75;3.22;;;;;;;;;;4892176;29;20131;-74
2022/07/12 09:30:27;;;;;;;13.05;2.90;;;;;;;;;;4896300;29;20155;-74
2022/07/12 09:36:07;;;;;;;15.98;2.50;;;;;;;;;;4892038;29;20466;-73
2022/07/12 09:38:48;;;;;;;10.18;2.30;;;;;;;;;;4894030;29;20328;-73
2022/07/12 09:41:17;;;;;;;14.93;2.40;;;;;;;;;;4893430;29;20051;-76
2022/07/12 09:43:44;;;;;;;9.05;2.33;;;;;;;;;;4894074;29;20534;-73
2022/07/12 09:46:10;;;;;;;7.45;2.40;;;;;;;;;;4893538;29;20045;-73
2022/07/12 09:48:41;;;;;;;11.35;2.80;;;;;;;;;;4892971;29;20157;-73
2022/07/12 09:51:09;;;;;;;11.95;2.50;;;;;;;;;;4893792;29;20092;-74
2022/07/12 09:53:41;;;;;;;12.57;2.40;;;;;;;;;;4895107;29;20483;-75
2022/07/12 09:56:11;;;;;;;14.48;2.42;;;;;;;;;;4880112;29;20057;-74
2022/07/12 09:58:57;;;;;;;17.88;2.45;;;;;;;;;;4892610;29;20056;-73
2022/07/12 10:01:24;;;;;;;11.52;2.45;;;;;;;;;;4888459;29;20054;-74
2022/07/12 10:03:51;;;;;;;19.98;2.78;;;;;;;;;;4895516;29;20143;-78
2022/07/12 10:06:25;;;;;;;12.88;2.88;;;;;;;;;;4882350;29;20044;-78
2022/07/12 10:08:52;;;;;;;7.20;2.65;;;;;;;;;;4899107;29;20124;-81
2022/07/12 10:11:22;;;;;;;10.27;2.53;;;;;;;;;;4886345;29;20044;-81
2022/07/12 10:13:49;;;;;;;8.77;2.70;;;;;;;;;;4900657;29;20077;-78
2022/07/12 10:16:18;;;;;;;10.88;2.80;;;;;;;;;;4882979;29;20120;-78
2022/07/12 10:18:44;;;;;;;8.55;2.35;;;;;;;;;;4882505;29;20045;-76
2022/07/12 10:21:19;;;;;;;9.10;2.65;;;;;;;;;;4909728;29;20041;-80
2022/07/12 10:23:45;;;;;;;5.35;2.30;;;;;;;;;;4900419;29;20075;-82
2022/07/12 10:26:14;;;;;;;6.22;2.30;;;;;;;;;;4880844;29;20041;-78
2022/07/12 10:29:06;;;;;;;7.85;2.42;;;;;;;;;;4891640;29;20431;-79
2022/07/12 10:31:37;;;;;;;5.70;2.10;;;;;;;;;;4869120;29;20143;-79
2022/07/12 10:34:13;;;;;;;6.75;2.00;;;;;;;;;;4892819;29;20059;-77
2022/07/12 10:36:55;;;;;;;5.88;2.05;;;;;;;;;;4896680;29;20519;-79
2022/07/12 10:39:28;;;;;;;3.75;2.13;;;;;;;;;;4894420;29;20198;-78
2022/07/12 10:42:13;;;;;;;;;;;;;;;;;;4897181;29;20048;-79
2022/07/12 10:44:47;;;;;;;8.23;2.30;;;;;;;;;;4897100;29;19923;-81
2022/07/12 10:47:16;;;;;;;7.47;2.30;;;;;;;;;;4898435;29;20059;-78
2022/07/12 10:49:49;;;;;;;9.07;3.65;;;;;;;;;;4881134;29;20172;-77
2022/07/12 10:52:22;;;;;;;10.63;2.90;;;;;;;;;;4902008;29;20060;-80
2022/07/12 10:55:13;;;;;;;5.05;2.08;;;;;;;;;;4901492;29;20379;-77
2022/07/12 10:57:45;;;;;;;3.63;1.70;;;;;;;;;;4897358;29;20534;-78
2022/07/12 11:00:12;;;;;;;4.20;2.00;;;;;;;;;;4897170;29;20056;-78
2022/07/12 11:02:38;;;;;;;5.55;2.92;;;;;;;;;;4895369;29;20111;-78
2022/07/12 11:05:04;;;;;;;5.82;2.65;;;;;;;;;;4895321;29;20049;-78
2022/07/12 11:07:31;;;;;;;3.67;1.92;;;;;;;;;;4906016;29;20217;-77
2022/07/12 11:09:57;;;;;;;5.50;1.67;;;;;;;;;;4898102;29;20076;-75
2022/07/12 11:12:29;;;;;;;6.57;2.10;;;;;;;;;;4903251;29;20045;-77
2022/07/12 11:14:56;;;;;;;6.70;1.58;;;;;;;;;;4899290;29;20052;-77
2022/07/12 11:17:32;;;;;;;6.45;1.85;;;;;;;;;;4895852;29;20513;-79
2022/07/12 11:20:05;;;;;;;2.45;1.45;;;;;;;;;;4897937;29;20167;-76
2022/07/12 11:22:31;;;;;;;6.10;1.73;;;;;;;;;;4900512;29;20040;-75
2022/07/12 11:24:59;;;;;;;5.57;2.42;;;;;;;;;;4899520;29;20153;-78
2022/07/12 11:27:27;;;;;;;5.15;1.60;;;;;;;;;;4895369;29;20040;-77
2022/07/12 11:29:57;;;;;;;2.78;1.50;;;;;;;;;;4899728;29;20048;-77
2022/07/12 11:32:37;;;;;;;12.93;2.22;;;;;;;;;;4898501;29;20053;-79
2022/07/12 11:35:04;;;;;;;3.92;1.70;;;;;;;;;;4908266;29;20056;-76
2022/07/12 11:37:30;;;;;;;4.82;1.80;;;;;;;;;;4898972;29;20052;-78
2022/07/12 11:39:57;;;;;;;4.03;1.75;;;;;;;;;;4898261;29;20499;-79
2022/07/12 11:42:23;;;;;;;5.05;1.73;;;;;;;;;;4893108;29;20058;-77
2022/07/12 11:44:50;;;;;;;5.10;1.75;;;;;;;;;;4898126;29;20550;-79
2022/07/12 11:47:21;;;;;;;4.95;2.40;;;;;;;;;;4900579;29;20416;-78
2022/07/12 11:49:50;;;;;;;4.72;2.92;;;;;;;;;;4900162;29;20065;-77
2022/07/12 11:52:26;;;;;;;5.78;1.88;;;;;;;;;;4899041;29;20051;-78
2022/07/12 11:54:53;;;;;;;3.45;1.65;;;;;;;;;;4899939;29;20053;-79
2022/07/12 11:57:21;;;;;;;5.28;1.73;;;;;;;;;;4893884;29;20108;-78
2022/07/12 11:59:47;;;;;;;3.03;1.17;;;;;;;;;;4889541;29;20419;-77
2022/07/12 12:02:18;;;;;;;4.20;1.38;;;;;;;;;;4899081;29;20061;-80
2022/07/12 12:04:44;;;;;;;2.85;1.40;;;;;;;;;;4900901;29;20040;-78
2022/07/12 12:07:15;;;;;;;3.95;1.60;;;;;;;;;;4899432;29;20077;-77
2022/07/12 12:10:11;;;;;;;3.50;1.30;;;;;;;;;;4897092;29;20080;-78
2022/07/12 12:12:48;;;;;;;3.28;1.52;;;;;;;;;;4899094;29;20602;-77
2022/07/12 12:15:17;;;;;;;3.97;1.40;;;;;;;;;;4900227;29;20052;-77
2022/07/12 12:17:50;;;;;;;2.20;1.50;;;;;;;;;;4901186;29;20068;-78
2022/07/12 12:20:26;;;;;;;;;;;;;;;;;;4899649;29;20116;-78
2022/07/12 12:22:56;;;;;;;9.75;1.45;;;;;;;;;;4899764;29;20029;-74
2022/07/12 12:25:24;;;;;;;3.50;1.40;;;;;;;;;;4893592;29;20127;-79
2022/07/12 12:27:56;;;;;;;2.72;1.30;;;;;;;;;;4884221;29;20414;-76
2022/07/12 12:30:23;;;;;;;8.57;1.15;;;;;;;;;;4890712;29;20041;-77
2022/07/12 12:32:55;;;;;;;6.03;1.38;;;;;;;;;;4897275;29;20064;-77
2022/07/12 12:35:34;;;;;;;3.22;1.27;;;;;;;;;;4903006;29;20040;-76
2022/07/12 12:38:11;;;;;;;5.38;1.38;;;;;;;;;;4904256;29;20056;-79
2022/07/12 12:40:37;;;;;;;6.45;1.90;;;;;;;;;;4888659;29;20048;-76
2022/07/12 12:43:08;;;;;;;4.40;1.80;;;;;;;;;;4900924;29;20143;-75
2022/07/12 12:45:34;;;;;;;3.08;1.70;;;;;;;;;;4901956;29;20080;-77
2022/07/12 12:48:03;;;;;;;4.80;1.83;;;;;;;;;;4899532;29;20509;-76
2022/07/12 12:50:42;;;;;;;2.10;1.35;;;;;;;;;;4898306;29;20056;-76
2022/07/12 12:53:31;;;;;;;4.13;1.35;;;;;;;;;;4903539;29;20510;-75
2022/07/12 12:55:57;;;;;;;3.45;1.30;;;;;;;;;;4900652;29;20059;-77
2022/07/12 12:58:25;;;;;;;3.95;1.20;;;;;;;;;;4898720;29;20120;-76
2022/07/12 13:00:53;;;;;;;3.58;1.60;;;;;;;;;;4905321;29;20048;-77
2022/07/12 13:03:21;;;;;;;2.22;1.50;;;;;;;;;;4901772;29;20104;-77
2022/07/12 13:05:50;;;;;;;2.45;1.30;;;;;;;;;;4899103;29;20077;-79
2022/07/12 13:08:16;;;;;;;3.85;2.28;;;;;;;;;;4897803;29;20078;-79
2022/07/12 13:10:44;;;;;;;2.72;1.50;;;;;;;;;;4899634;29;20076;-77
2022/07/12 13:13:10;;;;;;;4.63;1.55;;;;;;;;;;4900373;29;20045;-77
2022/07/12 13:15:37;;;;;;;3.58;1.23;;;;;;;;;;4898773;29;20055;-79
2022/07/12 13:18:04;;;;;;;4.47;1.50;;;;;;;;;;4898215;29;20083;-80
2022/07/12 13:20:31;;;;;;;3.50;1.40;;;;;;;;;;4893075;29;20591;-78
2022/07/12 13:22:57;;;;;;;4.15;1.38;;;;;;;;;;4877218;29;20079;-77
2022/07/12 13:25:25;;;;;;;3.70;1.40;;;;;;;;;;4906343;29;20073;-77
2022/07/12 13:27:52;;;;;;;3.70;1.30;;;;;;;;;;4897900;29;20036;-77
2022/07/12 13:30:20;;;;;;;4.25;1.48;;;;;;;;;;4899785;29;20068;-78
2022/07/12 13:32:46;;;;;;;6.00;1.48;;;;;;;;;;4897637;29;20060;-77
2022/07/12 13:35:13;;;;;;;3.28;1.83;;;;;;;;;;4898441;29;20113;-77
2022/07/12 13:37:42;;;;;;;5.43;1.50;;;;;;;;;;4895789;29;20143;-78
2022/07/12 13:40:16;;;;;;;5.55;1.30;;;;;;;;;;4898043;29;20049;-78
2022/07/12 13:42:48;;;;;;;7.07;1.40;;;;;;;;;;4896389;29;20052;-76
2022/07/12 13:45:22;;;;;;;4.67;1.30;;;;;;;;;;4897485;29;20451;-75
2022/07/12 13:47:50;;;;;;;8.15;1.73;;;;;;;;;;4897421;29;20698;-78
2022/07/12 13:50:17;;;;;;;3.50;1.50;;;;;;;;;;4898974;29;20104;-76
2022/07/12 13:52:45;;;;;;;2.13;1.05;;;;;;;;;;4890539;29;20111;-77
2022/07/12 13:55:12;;;;;;;4.00;1.30;;;;;;;;;;4898469;29;20760;-75
2022/07/12 13:57:39;;;;;;;5.28;1.30;;;;;;;;;;4881558;29;20127;-77
2022/07/12 14:00:11;;;;;;;4.20;1.42;;;;;;;;;;4897977;29;20048;-78
2022/07/12 14:02:48;;;;;;;2.33;1.30;;;;;;;;;;4891319;29;20104;-79
2022/07/12 14:05:16;;;;;;;7.40;1.38;;;;;;;;;;4894212;29;20145;-79
2022/07/12 14:07:43;;;;;;;1.95;0.95;;;;;;;;;;4895719;29;20044;-77
2022/07/12 14:10:09;;;;;;;2.25;1.35;;;;;;;;;;4896017;29;20052;-77
2022/07/12 14:12:36;;;;;;;4.72;1.23;;;;;;;;;;4896179;29;20124;-79
2022/07/12 14:17:42;;;;;;;4.65;1.50;;;;;;;;;;4894611;29;20052;-79
2022/07/12 14:20:09;;;;;;;6.32;1.70;;;;;;;;;;4897678;29;20105;-78
2022/07/12 14:22:36;;;;;;;3.85;1.40;;;;;;;;;;4896184;29;20049;-77
2022/07/12 14:25:06;;;;;;;3.38;1.40;;;;;;;;;;4896944;29;20103;-80
2022/07/12 14:27:33;;;;;;;2.10;1.10;;;;;;;;;;4882071;29;20056;-76
2022/07/12 14:30:02;;;;;;;5.82;1.35;;;;;;;;;;4893274;29;20656;-78
2022/07/12 14:32:28;;;;;;;3.03;1.55;;;;;;;;;;4891071;29;20491;-77
2022/07/12 14:34:54;;;;;;;3.63;1.75;;;;;;;;;;4893851;29;20142;-76
2022/07/12 14:37:20;;;;;;;3.75;1.40;;;;;;;;;;4892796;29;20063;-78
2022/07/12 14:39:48;;;;;;;2.45;1.30;;;;;;;;;;4877451;29;20139;-76
2022/07/12 14:42:14;;;;;;;5.00;2.00;;;;;;;;;;4893482;29;20386;-76
2022/07/12 14:44:40;;;;;;;2.40;1.60;;;;;;;;;;4891351;29;20048;-76
2022/07/12 14:47:07;;;;;;;5.25;2.88;;;;;;;;;;4880444;29;20049;-75
2022/07/12 14:49:33;;;;;;;6.82;2.42;;;;;;;;;;4884451;29;20086;-77
2022/07/12 14:51:59;;;;;;;3.22;1.50;;;;;;;;;;4893101;29;20110;-76
2022/07/12 14:54:26;;;;;;;4.65;1.50;;;;;;;;;;4894024;29;20410;-77
2022/07/12 14:56:52;;;;;;;2.03;1.30;;;;;;;;;;4894857;29;20091;-76
2022/07/12 14:59:17;;;;;;;2.20;1.25;;;;;;;;;;4897344;29;20033;-77